Terminal Aerodrome Forecast
Issued by NWS

Home | Current Version | Previous Version | Text Only | Print | Product List | Glossary On
Versions: 1 2 3 4 5 6 7 8 9 10 11 12
000
FTUS45 KCYS 301120
TAFRWL
TAF
KRWL 301120Z 3012/3112 26010KT P6SM SCT250
     FM301900 26014KT P6SM VCTS SCT050CB BKN200
     FM310200 31011KT P6SM SCT200
     FM310500 36011KT P6SM SCT200=

USA.gov is the U.S. government's official web portal to all federal, state and local government web resources and services.